Aérodrome :
LOGIN :

S'inscrire | Disclaimer

   EN    FR    IT 

 










Légende :    VFR   VFR Marginal   IFR   IFR Intensif   IFR Très Intensif
Visi : 
Plafond : 
>= 8 km
>= 3000ft
5 à 8 km
1000 à 3000 ft
1500m à 5 km
500 à 1000 ft
800 à 1500m
200 à 500 ft
< 800m
< 200 ft
Symboles :   Orages  Brouillard  Fortes neiges  Fortes précipitations  Vent > 20 kt
SIGMETs :   Divers  Orages  Givrage  Turbulence  Onde Orograph.  Cendres Volcan.







- Altitude de l'aérodrome : 1090 ft
- Code IATA : CFE
- Voir les cartes d'approche


LFLC - Clermont-Ferrand Auvergne

DERNIER METAR :
  • 191230Z AUTO 32009KT 280V350 9999 BKN031 BKN042 BKN050 15/08 Q1007 TEMPO SHRA BKN040TCU

METARs EXPIRÉS :
  • 191200Z AUTO 32006KT 260V020 9999 SCT030 BKN037 BKN044 15/08 Q1007 TEMPO SHRA BKN040TCU
  • 191130Z AUTO 33007KT 270V360 9999 BKN029 BKN035 BKN043 15/08 Q1007 TEMPO SHRA BKN040TCU
  • 191100Z AUTO 32008KT 280V350 9999 BKN027 OVC036 14/08 Q1007 TEMPO SHRA BKN040TCU
  • 191030Z AUTO 32008KT 270V350 9999 BKN027 BKN032 BKN047 15/08 Q1007 TEMPO SHRA BKN040TCU
  • 191000Z AUTO 30007KT 280V340 9999 BKN032 OVC043 14/07 Q1007 NOSIG

TAF TAF LFLC
Valide du 19 à 09h jusqu'au 20 à 09h UTC


190800Z 1909/2009 33005KT 9999 BKN030 BKN040
PROB30
TEMPO 1912/1921 SHRA BKN040TCU
ATIS : +33 4 73 62 74 38
Pas de NOTAMs connus pour ce terrain.
1 SIGMET publié pour la FIR Marseille (LFMM) :
 
Orages noyés dans la masse
LFMM SIGMET 1 VALID 191200/191400 LFPW
LFMM MARSEILLE FIR/UIR EMBD TS FCST WI N4400 E00645 - N4330 E00715 - N4245 E00615 - N4330 E00545 - N4400 E00645 TOP FL320 STNR NC=



MET'MAP, la Météo Aéronautique d'un coup d'oeil ! - Copyright ORBIFLY Décembre 2007 - Disclaimer

ORBIFLY MET'MAP TEAM :

Programmation & Développement : Alexandra Zaïnal
Conception & Développement : Baudouin d'Aumeries
Co-Programmation & Développement : Marc-Olivier Méhu
Soutien technique & logistique : Manuel Goepfert

Contact : metmap@orbifly.com




SOURCES & CREDITS :

   NOAA